sensor_id;sensor_type;location;lat;lon;timestamp;P1;durP1;ratioP1;P2;durP2;ratioP2
14472;SDS011;7322;50.872;4.386;2023-12-20T00:02:17;1.63;;;1.20;;
14472;SDS011;7322;50.872;4.386;2023-12-20T00:04:44;2.10;;;1.57;;
14472;SDS011;7322;50.872;4.386;2023-12-20T00:07:11;1.23;;;1.13;;
14472;SDS011;7322;50.872;4.386;2023-12-20T00:09:38;2.47;;;1.10;;
14472;SDS011;7322;50.872;4.386;2023-12-20T00:12:05;2.30;;;1.30;;
14472;SDS011;7322;50.872;4.386;2023-12-20T00:14:32;1.30;;;1.20;;
14472;SDS011;7322;50.872;4.386;2023-12-20T00:16:59;1.37;;;1.20;;
14472;SDS011;7322;50.872;4.386;2023-12-20T00:19:28;1.33;;;1.00;;
14472;SDS011;7322;50.872;4.386;2023-12-20T00:21:55;1.60;;;1.07;;
14472;SDS011;7322;50.872;4.386;2023-12-20T00:24:22;1.83;;;1.30;;
14472;SDS011;7322;50.872;4.386;2023-12-20T00:26:49;1.33;;;1.20;;
14472;SDS011;7322;50.872;4.386;2023-12-20T00:29:16;1.47;;;1.20;;
14472;SDS011;7322;50.872;4.386;2023-12-20T00:31:43;1.30;;;1.00;;
14472;SDS011;7322;50.872;4.386;2023-12-20T00:34:11;1.20;;;1.10;;
14472;SDS011;7322;50.872;4.386;2023-12-20T00:36:41;1.93;;;1.30;;
14472;SDS011;7322;50.872;4.386;2023-12-20T00:39:08;1.93;;;1.40;;
14472;SDS011;7322;50.872;4.386;2023-12-20T00:41:34;2.10;;;1.33;;
14472;SDS011;7322;50.872;4.386;2023-12-20T00:44:02;1.77;;;1.10;;
14472;SDS011;7322;50.872;4.386;2023-12-20T00:46:29;1.80;;;1.30;;
14472;SDS011;7322;50.872;4.386;2023-12-20T00:48:57;1.30;;;1.20;;
14472;SDS011;7322;50.872;4.386;2023-12-20T00:51:24;1.10;;;1.00;;
14472;SDS011;7322;50.872;4.386;2023-12-20T00:53:52;1.73;;;1.13;;
14472;SDS011;7322;50.872;4.386;2023-12-20T00:56:22;1.90;;;1.17;;
14472;SDS011;7322;50.872;4.386;2023-12-20T00:58:50;2.00;;;1.20;;
14472;SDS011;7322;50.872;4.386;2023-12-20T01:01:17;2.17;;;1.33;;
14472;SDS011;7322;50.872;4.386;2023-12-20T01:03:44;1.10;;;1.00;;
14472;SDS011;7322;50.872;4.386;2023-12-20T01:06:12;2.40;;;1.20;;
14472;SDS011;7322;50.872;4.386;2023-12-20T01:08:39;1.30;;;1.00;;
14472;SDS011;7322;50.872;4.386;2023-12-20T01:11:08;1.60;;;1.10;;
14472;SDS011;7322;50.872;4.386;2023-12-20T01:13:35;1.20;;;1.10;;
14472;SDS011;7322;50.872;4.386;2023-12-20T01:16:02;1.10;;;1.00;;
14472;SDS011;7322;50.872;4.386;2023-12-20T01:18:30;1.27;;;1.17;;
14472;SDS011;7322;50.872;4.386;2023-12-20T01:21:01;1.83;;;1.13;;
14472;SDS011;7322;50.872;4.386;2023-12-20T01:23:28;1.77;;;1.27;;
14472;SDS011;7322;50.872;4.386;2023-12-20T01:25:55;1.20;;;1.00;;
14472;SDS011;7322;50.872;4.386;2023-12-20T01:28:26;1.63;;;1.27;;
14472;SDS011;7322;50.872;4.386;2023-12-20T01:30:56;1.83;;;1.20;;
14472;SDS011;7322;50.872;4.386;2023-12-20T01:33:23;1.60;;;1.20;;
14472;SDS011;7322;50.872;4.386;2023-12-20T01:35:50;1.23;;;1.10;;
14472;SDS011;7322;50.872;4.386;2023-12-20T01:38:17;1.17;;;1.07;;
14472;SDS011;7322;50.872;4.386;2023-12-20T01:40:45;1.37;;;1.00;;
14472;SDS011;7322;50.872;4.386;2023-12-20T01:43:13;3.10;;;1.47;;
14472;SDS011;7322;50.872;4.386;2023-12-20T01:45:41;1.20;;;0.87;;
14472;SDS011;7322;50.872;4.386;2023-12-20T01:48:10;1.30;;;1.00;;
14472;SDS011;7322;50.872;4.386;2023-12-20T01:50:37;2.03;;;1.20;;
14472;SDS011;7322;50.872;4.386;2023-12-20T01:53:05;1.20;;;1.07;;
14472;SDS011;7322;50.872;4.386;2023-12-20T01:55:35;1.40;;;1.10;;
14472;SDS011;7322;50.872;4.386;2023-12-20T01:58:06;1.70;;;1.20;;
14472;SDS011;7322;50.872;4.386;2023-12-20T02:00:35;1.20;;;1.10;;
14472;SDS011;7322;50.872;4.386;2023-12-20T02:03:04;1.10;;;1.00;;
14472;SDS011;7322;50.872;4.386;2023-12-20T02:05:31;1.07;;;1.00;;
14472;SDS011;7322;50.872;4.386;2023-12-20T02:08:00;3.03;;;1.10;;
14472;SDS011;7322;50.872;4.386;2023-12-20T02:10:27;1.93;;;1.00;;
14472;SDS011;7322;50.872;4.386;2023-12-20T02:12:54;1.97;;;1.03;;
14472;SDS011;7322;50.872;4.386;2023-12-20T02:15:21;1.60;;;1.17;;
14472;SDS011;7322;50.872;4.386;2023-12-20T02:17:49;1.53;;;1.13;;
14472;SDS011;7322;50.872;4.386;2023-12-20T02:20:18;1.70;;;1.10;;
14472;SDS011;7322;50.872;4.386;2023-12-20T02:22:46;1.60;;;1.10;;
14472;SDS011;7322;50.872;4.386;2023-12-20T02:25:13;0.90;;;0.80;;
14472;SDS011;7322;50.872;4.386;2023-12-20T02:27:40;1.13;;;1.00;;
14472;SDS011;7322;50.872;4.386;2023-12-20T02:30:08;1.10;;;1.00;;
14472;SDS011;7322;50.872;4.386;2023-12-20T02:32:36;2.00;;;1.17;;
14472;SDS011;7322;50.872;4.386;2023-12-20T02:35:03;3.07;;;1.03;;
14472;SDS011;7322;50.872;4.386;2023-12-20T02:37:31;1.63;;;1.10;;
14472;SDS011;7322;50.872;4.386;2023-12-20T02:40:00;1.87;;;1.03;;
14472;SDS011;7322;50.872;4.386;2023-12-20T02:42:28;1.90;;;1.10;;
14472;SDS011;7322;50.872;4.386;2023-12-20T02:44:56;1.53;;;1.10;;
14472;SDS011;7322;50.872;4.386;2023-12-20T02:47:23;1.50;;;0.93;;
14472;SDS011;7322;50.872;4.386;2023-12-20T02:49:49;1.63;;;1.20;;
14472;SDS011;7322;50.872;4.386;2023-12-20T02:52:18;2.17;;;1.10;;
14472;SDS011;7322;50.872;4.386;2023-12-20T02:54:45;1.10;;;0.97;;
14472;SDS011;7322;50.872;4.386;2023-12-20T02:57:14;1.87;;;1.00;;
14472;SDS011;7322;50.872;4.386;2023-12-20T02:59:41;1.63;;;1.03;;
14472;SDS011;7322;50.872;4.386;2023-12-20T03:02:08;1.23;;;1.00;;
14472;SDS011;7322;50.872;4.386;2023-12-20T03:04:37;1.27;;;1.10;;
14472;SDS011;7322;50.872;4.386;2023-12-20T03:07:04;1.63;;;1.20;;
14472;SDS011;7322;50.872;4.386;2023-12-20T03:09:30;1.60;;;1.10;;
14472;SDS011;7322;50.872;4.386;2023-12-20T03:11:57;1.77;;;1.10;;
14472;SDS011;7322;50.872;4.386;2023-12-20T03:14:26;1.57;;;1.03;;
14472;SDS011;7322;50.872;4.386;2023-12-20T03:16:53;0.80;;;0.70;;
14472;SDS011;7322;50.872;4.386;2023-12-20T03:19:20;1.10;;;1.00;;
14472;SDS011;7322;50.872;4.386;2023-12-20T03:21:48;1.40;;;0.90;;
14472;SDS011;7322;50.872;4.386;2023-12-20T03:24:14;1.03;;;0.93;;
14472;SDS011;7322;50.872;4.386;2023-12-20T03:26:41;1.40;;;1.10;;
14472;SDS011;7322;50.872;4.386;2023-12-20T03:29:08;1.20;;;1.07;;
14472;SDS011;7322;50.872;4.386;2023-12-20T03:31:37;1.53;;;0.90;;
14472;SDS011;7322;50.872;4.386;2023-12-20T03:34:03;2.10;;;0.97;;
14472;SDS011;7322;50.872;4.386;2023-12-20T03:36:30;1.60;;;0.90;;
14472;SDS011;7322;50.872;4.386;2023-12-20T03:38:57;1.53;;;1.10;;
14472;SDS011;7322;50.872;4.386;2023-12-20T03:41:24;1.70;;;1.00;;
14472;SDS011;7322;50.872;4.386;2023-12-20T03:43:52;1.40;;;1.10;;
14472;SDS011;7322;50.872;4.386;2023-12-20T03:46:19;1.47;;;1.20;;
14472;SDS011;7322;50.872;4.386;2023-12-20T03:48:48;1.50;;;1.10;;
14472;SDS011;7322;50.872;4.386;2023-12-20T03:51:14;1.33;;;1.10;;
14472;SDS011;7322;50.872;4.386;2023-12-20T03:53:41;1.07;;;0.90;;
14472;SDS011;7322;50.872;4.386;2023-12-20T03:56:08;1.47;;;1.20;;
14472;SDS011;7322;50.872;4.386;2023-12-20T03:58:35;1.00;;;0.90;;
14472;SDS011;7322;50.872;4.386;2023-12-20T04:01:02;2.10;;;1.10;;
14472;SDS011;7322;50.872;4.386;2023-12-20T04:03:29;2.10;;;1.10;;
14472;SDS011;7322;50.872;4.386;2023-12-20T04:05:58;1.90;;;1.10;;
14472;SDS011;7322;50.872;4.386;2023-12-20T04:08:25;1.53;;;1.07;;
14472;SDS011;7322;50.872;4.386;2023-12-20T04:10:53;1.60;;;1.00;;
14472;SDS011;7322;50.872;4.386;2023-12-20T04:13:20;1.67;;;1.17;;
14472;SDS011;7322;50.872;4.386;2023-12-20T04:15:47;1.03;;;0.80;;
14472;SDS011;7322;50.872;4.386;2023-12-20T04:18:16;1.50;;;0.97;;
14472;SDS011;7322;50.872;4.386;2023-12-20T04:20:43;2.20;;;1.10;;
14472;SDS011;7322;50.872;4.386;2023-12-20T04:23:11;1.77;;;1.00;;
14472;SDS011;7322;50.872;4.386;2023-12-20T04:25:39;1.13;;;0.93;;
14472;SDS011;7322;50.872;4.386;2023-12-20T04:28:07;2.00;;;1.00;;
14472;SDS011;7322;50.872;4.386;2023-12-20T04:30:34;1.70;;;1.00;;
14472;SDS011;7322;50.872;4.386;2023-12-20T04:33:02;1.63;;;0.90;;
14472;SDS011;7322;50.872;4.386;2023-12-20T04:35:29;3.37;;;1.13;;
14472;SDS011;7322;50.872;4.386;2023-12-20T04:37:56;1.10;;;1.00;;
14472;SDS011;7322;50.872;4.386;2023-12-20T04:40:25;1.20;;;1.10;;
14472;SDS011;7322;50.872;4.386;2023-12-20T04:42:52;1.70;;;1.00;;
14472;SDS011;7322;50.872;4.386;2023-12-20T04:45:19;2.57;;;1.20;;
14472;SDS011;7322;50.872;4.386;2023-12-20T04:47:48;1.30;;;1.20;;
14472;SDS011;7322;50.872;4.386;2023-12-20T04:50:15;1.43;;;1.10;;
14472;SDS011;7322;50.872;4.386;2023-12-20T04:52:43;1.00;;;0.80;;
14472;SDS011;7322;50.872;4.386;2023-12-20T04:55:10;2.13;;;0.90;;
14472;SDS011;7322;50.872;4.386;2023-12-20T04:57:38;2.43;;;1.30;;
14472;SDS011;7322;50.872;4.386;2023-12-20T05:00:06;1.00;;;0.80;;
14472;SDS011;7322;50.872;4.386;2023-12-20T05:02:34;1.90;;;1.00;;
14472;SDS011;7322;50.872;4.386;2023-12-20T05:05:02;1.77;;;1.10;;
14472;SDS011;7322;50.872;4.386;2023-12-20T05:07:30;1.80;;;1.10;;
14472;SDS011;7322;50.872;4.386;2023-12-20T05:09:58;2.20;;;1.03;;
14472;SDS011;7322;50.872;4.386;2023-12-20T05:12:25;1.50;;;1.00;;
14472;SDS011;7322;50.872;4.386;2023-12-20T05:14:54;2.20;;;1.07;;
14472;SDS011;7322;50.872;4.386;2023-12-20T05:17:21;0.93;;;0.83;;
14472;SDS011;7322;50.872;4.386;2023-12-20T05:19:48;1.17;;;0.90;;
14472;SDS011;7322;50.872;4.386;2023-12-20T05:22:15;1.23;;;0.97;;
14472;SDS011;7322;50.872;4.386;2023-12-20T05:24:41;1.77;;;0.93;;
14472;SDS011;7322;50.872;4.386;2023-12-20T05:27:08;2.17;;;1.10;;
14472;SDS011;7322;50.872;4.386;2023-12-20T05:29:36;2.13;;;1.00;;
14472;SDS011;7322;50.872;4.386;2023-12-20T05:32:04;1.10;;;0.90;;
14472;SDS011;7322;50.872;4.386;2023-12-20T05:34:32;1.63;;;1.10;;
14472;SDS011;7322;50.872;4.386;2023-12-20T05:36:58;2.77;;;1.10;;
14472;SDS011;7322;50.872;4.386;2023-12-20T05:39:26;2.47;;;1.13;;
14472;SDS011;7322;50.872;4.386;2023-12-20T05:41:53;1.23;;;0.87;;
14472;SDS011;7322;50.872;4.386;2023-12-20T05:44:20;2.13;;;1.00;;
14472;SDS011;7322;50.872;4.386;2023-12-20T05:46:49;1.33;;;0.90;;
14472;SDS011;7322;50.872;4.386;2023-12-20T05:49:18;1.57;;;1.13;;
14472;SDS011;7322;50.872;4.386;2023-12-20T05:51:44;1.43;;;0.90;;
14472;SDS011;7322;50.872;4.386;2023-12-20T05:54:11;2.30;;;1.20;;
14472;SDS011;7322;50.872;4.386;2023-12-20T05:56:38;1.97;;;1.00;;
14472;SDS011;7322;50.872;4.386;2023-12-20T05:59:06;3.17;;;1.00;;
14472;SDS011;7322;50.872;4.386;2023-12-20T06:01:33;1.77;;;0.90;;
14472;SDS011;7322;50.872;4.386;2023-12-20T06:04:00;1.47;;;0.87;;
14472;SDS011;7322;50.872;4.386;2023-12-20T06:06:30;2.73;;;0.90;;
14472;SDS011;7322;50.872;4.386;2023-12-20T06:08:57;1.20;;;0.90;;
14472;SDS011;7322;50.872;4.386;2023-12-20T06:11:25;1.40;;;0.90;;
14472;SDS011;7322;50.872;4.386;2023-12-20T06:13:52;1.60;;;0.97;;
14472;SDS011;7322;50.872;4.386;2023-12-20T06:16:19;1.10;;;0.90;;
14472;SDS011;7322;50.872;4.386;2023-12-20T06:18:46;1.73;;;1.10;;
14472;SDS011;7322;50.872;4.386;2023-12-20T06:21:13;2.23;;;1.00;;
14472;SDS011;7322;50.872;4.386;2023-12-20T06:23:42;1.33;;;1.00;;
14472;SDS011;7322;50.872;4.386;2023-12-20T06:26:09;1.00;;;0.80;;
14472;SDS011;7322;50.872;4.386;2023-12-20T06:28:36;1.40;;;1.03;;
14472;SDS011;7322;50.872;4.386;2023-12-20T06:31:03;1.13;;;1.03;;
14472;SDS011;7322;50.872;4.386;2023-12-20T06:33:31;1.20;;;0.80;;
14472;SDS011;7322;50.872;4.386;2023-12-20T06:35:58;2.43;;;0.90;;
14472;SDS011;7322;50.872;4.386;2023-12-20T06:38:25;1.83;;;0.77;;
14472;SDS011;7322;50.872;4.386;2023-12-20T06:40:53;1.63;;;0.90;;
14472;SDS011;7322;50.872;4.386;2023-12-20T06:43:22;0.90;;;0.70;;
14472;SDS011;7322;50.872;4.386;2023-12-20T06:45:50;1.27;;;0.90;;
14472;SDS011;7322;50.872;4.386;2023-12-20T06:48:17;2.07;;;1.03;;
14472;SDS011;7322;50.872;4.386;2023-12-20T06:50:44;1.70;;;1.00;;
14472;SDS011;7322;50.872;4.386;2023-12-20T06:53:11;1.40;;;1.00;;
14472;SDS011;7322;50.872;4.386;2023-12-20T06:55:38;1.90;;;0.90;;
14472;SDS011;7322;50.872;4.386;2023-12-20T06:58:06;2.23;;;1.00;;
14472;SDS011;7322;50.872;4.386;2023-12-20T07:00:34;1.80;;;0.93;;
14472;SDS011;7322;50.872;4.386;2023-12-20T07:03:01;1.20;;;0.90;;
14472;SDS011;7322;50.872;4.386;2023-12-20T07:05:28;1.20;;;0.73;;
14472;SDS011;7322;50.872;4.386;2023-12-20T07:07:55;1.47;;;0.90;;
14472;SDS011;7322;50.872;4.386;2023-12-20T07:10:22;1.00;;;0.80;;
14472;SDS011;7322;50.872;4.386;2023-12-20T07:12:49;1.67;;;0.90;;
14472;SDS011;7322;50.872;4.386;2023-12-20T07:15:19;1.17;;;0.70;;
14472;SDS011;7322;50.872;4.386;2023-12-20T07:17:45;2.27;;;1.30;;
14472;SDS011;7322;50.872;4.386;2023-12-20T07:20:12;1.80;;;1.00;;
14472;SDS011;7322;50.872;4.386;2023-12-20T07:22:39;1.00;;;0.80;;
14472;SDS011;7322;50.872;4.386;2023-12-20T07:25:07;2.63;;;1.00;;
14472;SDS011;7322;50.872;4.386;2023-12-20T07:27:35;2.17;;;1.03;;
14472;SDS011;7322;50.872;4.386;2023-12-20T07:30:03;1.90;;;0.93;;
14472;SDS011;7322;50.872;4.386;2023-12-20T07:32:32;3.10;;;1.10;;
14472;SDS011;7322;50.872;4.386;2023-12-20T07:34:59;1.73;;;0.97;;
14472;SDS011;7322;50.872;4.386;2023-12-20T07:37:26;1.90;;;1.10;;
14472;SDS011;7322;50.872;4.386;2023-12-20T07:39:53;2.17;;;1.10;;
14472;SDS011;7322;50.872;4.386;2023-12-20T07:42:20;1.40;;;0.90;;
14472;SDS011;7322;50.872;4.386;2023-12-20T07:44:48;2.00;;;0.97;;
14472;SDS011;7322;50.872;4.386;2023-12-20T07:47:15;2.50;;;1.00;;
14472;SDS011;7322;50.872;4.386;2023-12-20T07:49:48;1.77;;;0.90;;
14472;SDS011;7322;50.872;4.386;2023-12-20T07:52:16;1.67;;;0.80;;
14472;SDS011;7322;50.872;4.386;2023-12-20T07:54:45;1.77;;;1.20;;
14472;SDS011;7322;50.872;4.386;2023-12-20T07:57:12;1.13;;;0.77;;
14472;SDS011;7322;50.872;4.386;2023-12-20T07:59:39;1.33;;;0.90;;
14472;SDS011;7322;50.872;4.386;2023-12-20T08:02:06;1.10;;;0.70;;
14472;SDS011;7322;50.872;4.386;2023-12-20T08:04:33;1.87;;;1.10;;
14472;SDS011;7322;50.872;4.386;2023-12-20T08:07:03;1.83;;;1.03;;
14472;SDS011;7322;50.872;4.386;2023-12-20T08:09:30;2.47;;;1.17;;
14472;SDS011;7322;50.872;4.386;2023-12-20T08:11:59;5.90;;;1.10;;
14472;SDS011;7322;50.872;4.386;2023-12-20T08:14:26;1.77;;;0.73;;
14472;SDS011;7322;50.872;4.386;2023-12-20T08:16:53;2.33;;;0.93;;
14472;SDS011;7322;50.872;4.386;2023-12-20T08:19:20;1.33;;;0.80;;
14472;SDS011;7322;50.872;4.386;2023-12-20T08:21:48;1.53;;;0.90;;
14472;SDS011;7322;50.872;4.386;2023-12-20T08:24:16;1.37;;;0.80;;
14472;SDS011;7322;50.872;4.386;2023-12-20T08:26:43;1.37;;;1.00;;
14472;SDS011;7322;50.872;4.386;2023-12-20T08:29:14;2.57;;;1.10;;
14472;SDS011;7322;50.872;4.386;2023-12-20T08:31:41;2.47;;;0.80;;
14472;SDS011;7322;50.872;4.386;2023-12-20T08:34:18;1.90;;;1.00;;
14472;SDS011;7322;50.872;4.386;2023-12-20T08:36:46;2.40;;;0.93;;
14472;SDS011;7322;50.872;4.386;2023-12-20T08:39:13;1.97;;;0.90;;
14472;SDS011;7322;50.872;4.386;2023-12-20T08:41:41;1.13;;;0.90;;
14472;SDS011;7322;50.872;4.386;2023-12-20T08:44:09;2.60;;;1.20;;
14472;SDS011;7322;50.872;4.386;2023-12-20T08:46:36;3.07;;;1.17;;
14472;SDS011;7322;50.872;4.386;2023-12-20T08:49:03;2.23;;;1.07;;
14472;SDS011;7322;50.872;4.386;2023-12-20T08:51:30;2.30;;;1.10;;
14472;SDS011;7322;50.872;4.386;2023-12-20T08:53:58;1.87;;;0.97;;
14472;SDS011;7322;50.872;4.386;2023-12-20T08:56:26;2.80;;;1.00;;
14472;SDS011;7322;50.872;4.386;2023-12-20T08:58:54;1.60;;;1.00;;
14472;SDS011;7322;50.872;4.386;2023-12-20T09:01:22;1.40;;;1.00;;
14472;SDS011;7322;50.872;4.386;2023-12-20T09:03:52;2.07;;;1.00;;
14472;SDS011;7322;50.872;4.386;2023-12-20T09:06:19;2.70;;;1.10;;
14472;SDS011;7322;50.872;4.386;2023-12-20T09:08:46;2.10;;;1.10;;
14472;SDS011;7322;50.872;4.386;2023-12-20T09:11:13;1.63;;;0.90;;
14472;SDS011;7322;50.872;4.386;2023-12-20T09:13:42;2.57;;;0.87;;
14472;SDS011;7322;50.872;4.386;2023-12-20T09:16:10;2.00;;;1.00;;
14472;SDS011;7322;50.872;4.386;2023-12-20T09:18:38;1.77;;;1.10;;
14472;SDS011;7322;50.872;4.386;2023-12-20T09:21:05;1.43;;;0.80;;
14472;SDS011;7322;50.872;4.386;2023-12-20T09:23:32;1.63;;;0.90;;
14472;SDS011;7322;50.872;4.386;2023-12-20T09:25:59;3.80;;;1.27;;
14472;SDS011;7322;50.872;4.386;2023-12-20T09:28:26;3.80;;;1.40;;
14472;SDS011;7322;50.872;4.386;2023-12-20T09:30:54;3.90;;;1.63;;
14472;SDS011;7322;50.872;4.386;2023-12-20T09:33:21;5.37;;;2.00;;
14472;SDS011;7322;50.872;4.386;2023-12-20T09:35:50;3.70;;;1.80;;
14472;SDS011;7322;50.872;4.386;2023-12-20T09:38:18;8.03;;;2.10;;
14472;SDS011;7322;50.872;4.386;2023-12-20T09:40:46;6.40;;;1.90;;
14472;SDS011;7322;50.872;4.386;2023-12-20T09:43:13;4.93;;;1.90;;
14472;SDS011;7322;50.872;4.386;2023-12-20T09:45:44;3.40;;;1.80;;
14472;SDS011;7322;50.872;4.386;2023-12-20T09:48:18;4.17;;;1.60;;
14472;SDS011;7322;50.872;4.386;2023-12-20T09:50:47;6.10;;;1.93;;
14472;SDS011;7322;50.872;4.386;2023-12-20T09:53:15;4.27;;;1.90;;
14472;SDS011;7322;50.872;4.386;2023-12-20T09:55:42;4.53;;;1.60;;
14472;SDS011;7322;50.872;4.386;2023-12-20T09:58:12;4.47;;;1.77;;
14472;SDS011;7322;50.872;4.386;2023-12-20T10:00:46;3.47;;;1.70;;
14472;SDS011;7322;50.872;4.386;2023-12-20T10:06:13;5.63;;;2.03;;
14472;SDS011;7322;50.872;4.386;2023-12-20T10:08:50;5.50;;;2.20;;
14472;SDS011;7322;50.872;4.386;2023-12-20T10:11:20;4.03;;;1.93;;
14472;SDS011;7322;50.872;4.386;2023-12-20T10:13:58;3.57;;;1.83;;
14472;SDS011;7322;50.872;4.386;2023-12-20T10:16:27;3.33;;;2.00;;
14472;SDS011;7322;50.872;4.386;2023-12-20T10:18:55;6.13;;;1.70;;
14472;SDS011;7322;50.872;4.386;2023-12-20T10:21:25;6.23;;;2.30;;
14472;SDS011;7322;50.872;4.386;2023-12-20T10:23:58;4.00;;;1.97;;
14472;SDS011;7322;50.872;4.386;2023-12-20T10:26:26;7.03;;;2.00;;
14472;SDS011;7322;50.872;4.386;2023-12-20T10:28:59;5.07;;;2.00;;
14472;SDS011;7322;50.872;4.386;2023-12-20T10:31:29;7.00;;;2.03;;
14472;SDS011;7322;50.872;4.386;2023-12-20T10:33:58;3.50;;;2.03;;
14472;SDS011;7322;50.872;4.386;2023-12-20T10:38:58;4.27;;;1.93;;
14472;SDS011;7322;50.872;4.386;2023-12-20T10:41:27;4.63;;;2.27;;
14472;SDS011;7322;50.872;4.386;2023-12-20T10:43:56;4.73;;;2.10;;
14472;SDS011;7322;50.872;4.386;2023-12-20T10:46:25;5.13;;;2.20;;
14472;SDS011;7322;50.872;4.386;2023-12-20T10:48:55;5.60;;;1.90;;
14472;SDS011;7322;50.872;4.386;2023-12-20T10:51:24;5.00;;;2.10;;
14472;SDS011;7322;50.872;4.386;2023-12-20T10:53:53;4.80;;;2.00;;
14472;SDS011;7322;50.872;4.386;2023-12-20T10:56:23;5.03;;;2.00;;
14472;SDS011;7322;50.872;4.386;2023-12-20T10:58:51;5.67;;;2.00;;
14472;SDS011;7322;50.872;4.386;2023-12-20T11:01:18;3.33;;;1.93;;
14472;SDS011;7322;50.872;4.386;2023-12-20T11:03:53;5.27;;;2.30;;
14472;SDS011;7322;50.872;4.386;2023-12-20T11:06:27;4.87;;;2.00;;
14472;SDS011;7322;50.872;4.386;2023-12-20T11:09:03;5.57;;;1.80;;
14472;SDS011;7322;50.872;4.386;2023-12-20T11:11:40;4.47;;;1.77;;
14472;SDS011;7322;50.872;4.386;2023-12-20T11:14:24;3.90;;;2.10;;
14472;SDS011;7322;50.872;4.386;2023-12-20T11:17:06;5.47;;;2.10;;
14472;SDS011;7322;50.872;4.386;2023-12-20T11:19:35;5.10;;;2.10;;
14472;SDS011;7322;50.872;4.386;2023-12-20T11:22:05;3.93;;;2.00;;
14472;SDS011;7322;50.872;4.386;2023-12-20T11:24:33;4.87;;;2.30;;
14472;SDS011;7322;50.872;4.386;2023-12-20T11:27:03;4.33;;;2.10;;
14472;SDS011;7322;50.872;4.386;2023-12-20T11:29:31;5.90;;;2.40;;
14472;SDS011;7322;50.872;4.386;2023-12-20T11:32:00;5.73;;;2.00;;
14472;SDS011;7322;50.872;4.386;2023-12-20T11:34:28;5.07;;;2.17;;
14472;SDS011;7322;50.872;4.386;2023-12-20T11:36:58;4.60;;;2.00;;
14472;SDS011;7322;50.872;4.386;2023-12-20T11:39:28;3.70;;;1.80;;
14472;SDS011;7322;50.872;4.386;2023-12-20T11:42:03;4.63;;;2.03;;
14472;SDS011;7322;50.872;4.386;2023-12-20T11:44:33;5.50;;;1.97;;
14472;SDS011;7322;50.872;4.386;2023-12-20T11:47:02;5.37;;;2.30;;
14472;SDS011;7322;50.872;4.386;2023-12-20T11:49:33;6.23;;;2.10;;
14472;SDS011;7322;50.872;4.386;2023-12-20T11:52:03;6.40;;;2.03;;
14472;SDS011;7322;50.872;4.386;2023-12-20T11:54:33;5.70;;;1.90;;
14472;SDS011;7322;50.872;4.386;2023-12-20T11:57:00;6.27;;;2.10;;
14472;SDS011;7322;50.872;4.386;2023-12-20T11:59:28;5.97;;;2.10;;
14472;SDS011;7322;50.872;4.386;2023-12-20T12:01:56;5.03;;;2.10;;
14472;SDS011;7322;50.872;4.386;2023-12-20T12:04:25;5.67;;;2.10;;
14472;SDS011;7322;50.872;4.386;2023-12-20T12:06:53;8.17;;;2.00;;
14472;SDS011;7322;50.872;4.386;2023-12-20T12:09:20;4.90;;;1.87;;
14472;SDS011;7322;50.872;4.386;2023-12-20T12:11:48;3.90;;;1.63;;
14472;SDS011;7322;50.872;4.386;2023-12-20T12:14:15;4.63;;;2.10;;
14472;SDS011;7322;50.872;4.386;2023-12-20T12:16:45;4.90;;;2.00;;
14472;SDS011;7322;50.872;4.386;2023-12-20T12:19:19;5.67;;;2.03;;
14472;SDS011;7322;50.872;4.386;2023-12-20T12:21:48;5.77;;;2.10;;
14472;SDS011;7322;50.872;4.386;2023-12-20T12:24:15;3.33;;;1.70;;
14472;SDS011;7322;50.872;4.386;2023-12-20T12:26:51;4.70;;;2.23;;
14472;SDS011;7322;50.872;4.386;2023-12-20T12:29:18;5.17;;;2.00;;
14472;SDS011;7322;50.872;4.386;2023-12-20T12:31:45;4.83;;;2.17;;
14472;SDS011;7322;50.872;4.386;2023-12-20T12:34:12;6.63;;;2.07;;
14472;SDS011;7322;50.872;4.386;2023-12-20T12:36:39;5.10;;;2.03;;
14472;SDS011;7322;50.872;4.386;2023-12-20T12:39:06;6.00;;;2.20;;
14472;SDS011;7322;50.872;4.386;2023-12-20T12:41:33;4.77;;;2.03;;
14472;SDS011;7322;50.872;4.386;2023-12-20T12:44:02;6.13;;;1.97;;
14472;SDS011;7322;50.872;4.386;2023-12-20T12:46:29;6.43;;;2.13;;
14472;SDS011;7322;50.872;4.386;2023-12-20T12:48:56;4.37;;;2.13;;
14472;SDS011;7322;50.872;4.386;2023-12-20T12:51:23;5.50;;;2.43;;
14472;SDS011;7322;50.872;4.386;2023-12-20T12:53:50;5.83;;;2.20;;
14472;SDS011;7322;50.872;4.386;2023-12-20T12:56:17;4.03;;;2.10;;
14472;SDS011;7322;50.872;4.386;2023-12-20T12:58:44;5.07;;;1.97;;
14472;SDS011;7322;50.872;4.386;2023-12-20T13:01:15;4.50;;;2.00;;
14472;SDS011;7322;50.872;4.386;2023-12-20T13:03:45;4.27;;;2.10;;
14472;SDS011;7322;50.872;4.386;2023-12-20T13:06:15;5.30;;;1.90;;
14472;SDS011;7322;50.872;4.386;2023-12-20T13:08:42;5.40;;;2.00;;
14472;SDS011;7322;50.872;4.386;2023-12-20T13:11:10;4.20;;;2.17;;
14472;SDS011;7322;50.872;4.386;2023-12-20T13:13:37;6.13;;;2.03;;
14472;SDS011;7322;50.872;4.386;2023-12-20T13:16:04;4.53;;;2.03;;
14472;SDS011;7322;50.872;4.386;2023-12-20T13:18:34;4.90;;;2.10;;
14472;SDS011;7322;50.872;4.386;2023-12-20T13:21:01;4.70;;;1.80;;
14472;SDS011;7322;50.872;4.386;2023-12-20T13:23:28;5.67;;;2.13;;
14472;SDS011;7322;50.872;4.386;2023-12-20T13:25:55;5.67;;;2.17;;
14472;SDS011;7322;50.872;4.386;2023-12-20T13:28:22;4.23;;;1.87;;
14472;SDS011;7322;50.872;4.386;2023-12-20T13:30:49;7.57;;;2.40;;
14472;SDS011;7322;50.872;4.386;2023-12-20T13:33:16;6.77;;;2.40;;
14472;SDS011;7322;50.872;4.386;2023-12-20T13:35:44;3.83;;;1.97;;
14472;SDS011;7322;50.872;4.386;2023-12-20T13:38:12;4.93;;;1.90;;
14472;SDS011;7322;50.872;4.386;2023-12-20T13:40:39;4.40;;;2.10;;
14472;SDS011;7322;50.872;4.386;2023-12-20T13:43:07;3.97;;;2.00;;
14472;SDS011;7322;50.872;4.386;2023-12-20T13:45:35;5.73;;;2.07;;
14472;SDS011;7322;50.872;4.386;2023-12-20T13:48:02;4.47;;;2.03;;
14472;SDS011;7322;50.872;4.386;2023-12-20T13:50:32;4.23;;;1.90;;
14472;SDS011;7322;50.872;4.386;2023-12-20T13:53:01;5.27;;;1.87;;
14472;SDS011;7322;50.872;4.386;2023-12-20T13:55:31;3.57;;;1.87;;
14472;SDS011;7322;50.872;4.386;2023-12-20T13:57:58;2.97;;;1.60;;
14472;SDS011;7322;50.872;4.386;2023-12-20T14:00:25;4.80;;;1.87;;
14472;SDS011;7322;50.872;4.386;2023-12-20T14:02:52;5.50;;;2.23;;
14472;SDS011;7322;50.872;4.386;2023-12-20T14:05:19;5.30;;;2.00;;
14472;SDS011;7322;50.872;4.386;2023-12-20T14:07:53;4.23;;;2.00;;
14472;SDS011;7322;50.872;4.386;2023-12-20T14:10:27;4.20;;;2.10;;
14472;SDS011;7322;50.872;4.386;2023-12-20T14:12:56;4.60;;;1.90;;
14472;SDS011;7322;50.872;4.386;2023-12-20T14:15:24;5.33;;;2.40;;
14472;SDS011;7322;50.872;4.386;2023-12-20T14:17:51;4.40;;;1.87;;
14472;SDS011;7322;50.872;4.386;2023-12-20T14:20:19;4.60;;;2.17;;
14472;SDS011;7322;50.872;4.386;2023-12-20T14:25:32;5.03;;;2.60;;
14472;SDS011;7322;50.872;4.386;2023-12-20T14:28:03;4.50;;;2.60;;
14472;SDS011;7322;50.872;4.386;2023-12-20T14:30:30;6.20;;;2.70;;
14472;SDS011;7322;50.872;4.386;2023-12-20T14:33:00;5.23;;;3.07;;
14472;SDS011;7322;50.872;4.386;2023-12-20T14:35:27;5.23;;;3.03;;
14472;SDS011;7322;50.872;4.386;2023-12-20T14:37:54;6.00;;;3.40;;
14472;SDS011;7322;50.872;4.386;2023-12-20T14:40:20;6.63;;;3.20;;
14472;SDS011;7322;50.872;4.386;2023-12-20T14:42:50;6.07;;;3.57;;
14472;SDS011;7322;50.872;4.386;2023-12-20T14:45:17;5.93;;;4.17;;
14472;SDS011;7322;50.872;4.386;2023-12-20T14:47:44;6.73;;;3.80;;
14472;SDS011;7322;50.872;4.386;2023-12-20T14:50:13;7.37;;;3.83;;
14472;SDS011;7322;50.872;4.386;2023-12-20T14:52:44;8.37;;;4.07;;
14472;SDS011;7322;50.872;4.386;2023-12-20T14:55:11;10.67;;;4.10;;
14472;SDS011;7322;50.872;4.386;2023-12-20T14:57:40;8.43;;;4.53;;
14472;SDS011;7322;50.872;4.386;2023-12-20T15:00:08;7.67;;;4.57;;
14472;SDS011;7322;50.872;4.386;2023-12-20T15:02:40;8.90;;;5.30;;
14472;SDS011;7322;50.872;4.386;2023-12-20T15:05:07;7.87;;;4.47;;
14472;SDS011;7322;50.872;4.386;2023-12-20T15:07:35;7.47;;;5.10;;
14472;SDS011;7322;50.872;4.386;2023-12-20T15:10:03;10.83;;;5.60;;
14472;SDS011;7322;50.872;4.386;2023-12-20T15:12:31;11.43;;;6.27;;
14472;SDS011;7322;50.872;4.386;2023-12-20T15:14:59;13.17;;;6.60;;